createdAt,value
2018-11-04T00:00:02.094Z,30.92
2018-11-04T00:00:39.179Z,30.17
2018-11-04T00:01:11.876Z,30.40
2018-11-04T00:01:44.816Z,31.23
2018-11-04T00:02:17.471Z,30.30
2018-11-04T00:02:50.289Z,31.40
2018-11-04T00:03:23.213Z,29.12
2018-11-04T00:03:55.851Z,29.77
2018-11-04T00:04:28.535Z,30.37
2018-11-04T00:05:01.221Z,30.85
2018-11-04T00:05:33.885Z,30.32
2018-11-04T00:06:06.579Z,29.60
2018-11-04T00:06:39.275Z,30.88
2018-11-04T00:07:11.967Z,30.48
2018-11-04T00:07:45.583Z,29.45
2018-11-04T00:08:18.265Z,29.82
2018-11-04T00:08:50.907Z,30.65
2018-11-04T00:09:23.573Z,30.32
2018-11-04T00:09:56.247Z,30.72
2018-11-04T00:10:28.939Z,29.85
2018-11-04T00:11:01.599Z,30.32
2018-11-04T00:11:34.279Z,29.57
2018-11-04T00:12:06.927Z,29.92
2018-11-04T00:12:39.867Z,29.42
2018-11-04T00:13:12.614Z,30.15
2018-11-04T00:13:45.263Z,29.10
2018-11-04T00:14:17.923Z,28.32
2018-11-04T00:14:50.628Z,29.12
2018-11-04T00:15:23.247Z,29.72
2018-11-04T00:15:55.907Z,29.60
2018-11-04T00:16:28.567Z,29.70
2018-11-04T00:17:01.227Z,30.40
2018-11-04T00:17:34.059Z,30.08
2018-11-04T00:18:06.735Z,29.45
2018-11-04T00:18:39.394Z,29.27
2018-11-04T00:19:12.053Z,29.02
2018-11-04T00:19:44.705Z,29.37
2018-11-04T00:20:17.427Z,29.37
2018-11-04T00:20:50.049Z,29.52
2018-11-04T00:21:22.681Z,29.65
2018-11-04T00:21:55.420Z,29.65
2018-11-04T00:22:28.131Z,28.80
2018-11-04T00:23:00.795Z,29.00
2018-11-04T00:23:33.483Z,29.00
2018-11-04T00:24:06.180Z,30.17
2018-11-04T00:24:38.833Z,30.00
2018-11-04T00:25:12.696Z,29.48
2018-11-04T00:25:45.380Z,28.95
2018-11-04T00:26:18.035Z,28.95
2018-11-04T00:26:50.757Z,28.90
2018-11-04T00:27:23.490Z,29.48
2018-11-04T00:27:56.097Z,29.23
2018-11-04T00:28:28.775Z,29.12
2018-11-04T00:29:01.432Z,29.45
2018-11-04T00:29:34.179Z,29.07
2018-11-04T00:30:08.752Z,29.02
2018-11-04T00:30:41.459Z,30.02
2018-11-04T00:31:14.143Z,28.98
2018-11-04T00:31:46.800Z,29.80
2018-11-04T00:32:19.461Z,29.50
2018-11-04T00:32:52.115Z,28.73
2018-11-04T00:33:24.780Z,28.62
2018-11-04T00:33:57.455Z,29.02
2018-11-04T00:34:30.124Z,29.25
2018-11-04T00:35:02.820Z,29.35
2018-11-04T00:35:35.471Z,28.87
2018-11-04T00:36:08.161Z,29.42
2018-11-04T00:36:40.851Z,30.20
2018-11-04T00:37:13.521Z,28.55
2018-11-04T00:37:46.174Z,29.80
2018-11-04T00:38:18.839Z,28.57
2018-11-04T00:38:51.507Z,28.55
2018-11-04T00:39:24.171Z,29.60
2018-11-04T00:39:56.837Z,29.18
2018-11-04T00:40:29.535Z,29.32
2018-11-04T00:41:02.180Z,28.70
2018-11-04T00:41:34.855Z,30.12
2018-11-04T00:42:07.498Z,29.60
2018-11-04T00:42:40.159Z,29.70
2018-11-04T00:43:12.829Z,29.92
2018-11-04T00:43:45.466Z,30.37
2018-11-04T00:44:18.155Z,29.75
2018-11-04T00:44:50.805Z,30.02
2018-11-04T00:45:23.552Z,29.75
2018-11-04T00:45:56.156Z,30.55
2018-11-04T00:46:28.795Z,30.70
2018-11-04T00:47:01.485Z,29.85
2018-11-04T00:47:34.131Z,29.37
2018-11-04T00:48:06.775Z,30.00
2018-11-04T00:48:39.445Z,30.50
2018-11-04T00:49:12.099Z,30.68
2018-11-04T00:49:44.750Z,30.80
2018-11-04T00:50:17.417Z,28.87
2018-11-04T00:50:50.093Z,30.20
2018-11-04T00:51:22.758Z,30.30
2018-11-04T00:51:55.412Z,29.80
2018-11-04T00:52:28.089Z,30.17
2018-11-04T00:53:00.731Z,31.00
2018-11-04T00:53:33.403Z,30.35
2018-11-04T00:54:06.069Z,29.65
2018-11-04T00:54:38.743Z,28.90
2018-11-04T00:55:11.787Z,30.85
2018-11-04T00:55:47.289Z,29.98
2018-11-04T00:56:19.935Z,30.43
2018-11-04T00:56:52.624Z,29.95
2018-11-04T00:57:25.306Z,30.32
2018-11-04T00:57:57.947Z,31.00
2018-11-04T00:58:30.613Z,30.90
2018-11-04T00:59:03.274Z,29.72
2018-11-04T00:59:35.959Z,30.45
2018-11-04T01:00:11.919Z,31.35
2018-11-04T01:00:44.588Z,30.80
2018-11-04T01:01:17.263Z,30.32
2018-11-04T01:01:49.920Z,29.95
2018-11-04T01:02:22.579Z,30.62
2018-11-04T01:02:55.232Z,29.98
2018-11-04T01:03:27.893Z,30.27
2018-11-04T01:04:00.583Z,29.77
2018-11-04T01:04:33.299Z,31.75
2018-11-04T01:05:06.653Z,31.05
2018-11-04T01:05:39.290Z,30.55
2018-11-04T01:06:11.961Z,30.23
2018-11-04T01:06:44.843Z,31.20
2018-11-04T01:07:17.499Z,30.70
2018-11-04T01:07:50.151Z,30.95
2018-11-04T01:08:22.834Z,29.50
2018-11-04T01:08:55.553Z,30.80
2018-11-04T01:09:28.181Z,30.80
2018-11-04T01:10:00.861Z,31.82
2018-11-04T01:10:33.525Z,31.45
2018-11-04T01:11:06.171Z,31.42
2018-11-04T01:11:38.859Z,31.23
2018-11-04T01:12:11.521Z,30.55
2018-11-04T01:12:44.641Z,30.37
2018-11-04T01:13:17.321Z,31.55
2018-11-04T01:13:50.011Z,30.95
2018-11-04T01:14:22.681Z,30.43
2018-11-04T01:14:55.326Z,30.77
2018-11-04T01:15:27.999Z,31.52
2018-11-04T01:16:00.658Z,30.20
2018-11-04T01:16:34.051Z,31.10
2018-11-04T01:17:06.741Z,30.02
2018-11-04T01:17:39.696Z,30.35
2018-11-04T01:18:12.369Z,30.32
2018-11-04T01:18:45.015Z,30.57
2018-11-04T01:19:17.703Z,30.45
2018-11-04T01:19:50.374Z,31.75
2018-11-04T01:20:23.027Z,30.50
2018-11-04T01:20:55.714Z,30.43
2018-11-04T01:21:28.351Z,31.93
2018-11-04T01:22:01.025Z,30.55
2018-11-04T01:22:33.672Z,31.07
2018-11-04T01:23:06.382Z,31.35
2018-11-04T01:23:39.062Z,31.40
2018-11-04T01:24:11.768Z,30.88
2018-11-04T01:24:44.473Z,30.88
2018-11-04T01:25:17.169Z,30.37
2018-11-04T01:25:49.823Z,30.65
2018-11-04T01:26:22.513Z,30.32
2018-11-04T01:26:55.219Z,29.75
2018-11-04T01:27:27.885Z,30.62
2018-11-04T01:28:00.567Z,30.90
2018-11-04T01:28:33.311Z,30.45
2018-11-04T01:29:05.972Z,30.45
2018-11-04T01:29:38.673Z,31.90
2018-11-04T01:30:12.903Z,29.95
2018-11-04T01:30:45.593Z,31.02
2018-11-04T01:31:18.285Z,31.42
2018-11-04T01:31:50.949Z,30.35
2018-11-04T01:32:23.575Z,29.25
2018-11-04T01:32:56.261Z,29.10
2018-11-04T01:33:28.915Z,31.40
2018-11-04T01:34:01.600Z,30.23
2018-11-04T01:34:34.287Z,30.95
2018-11-04T01:35:07.473Z,31.80
2018-11-04T01:35:40.151Z,29.95
2018-11-04T01:36:12.809Z,30.40
2018-11-04T01:36:45.456Z,31.07
2018-11-04T01:37:18.109Z,31.57
2018-11-04T01:37:50.792Z,31.02
2018-11-04T01:38:23.471Z,31.30
2018-11-04T01:38:56.139Z,30.08
2018-11-04T01:39:28.795Z,31.30
2018-11-04T01:40:01.558Z,30.25
2018-11-04T01:40:34.222Z,30.10
2018-11-04T01:41:06.901Z,30.20
2018-11-04T01:41:39.557Z,28.52
2018-11-04T01:42:12.225Z,29.65
2018-11-04T01:42:44.905Z,30.10
2018-11-04T01:43:17.569Z,29.77
2018-11-04T01:43:50.243Z,29.77
2018-11-04T01:44:22.907Z,30.15
2018-11-04T01:44:55.569Z,29.45
2018-11-04T01:45:28.273Z,29.52
2018-11-04T01:46:00.950Z,29.55
2018-11-04T01:46:33.617Z,29.55
2018-11-04T01:47:06.260Z,29.67
2018-11-04T01:47:39.181Z,28.40
2018-11-04T01:48:11.839Z,29.42
2018-11-04T01:48:44.507Z,28.80
2018-11-04T01:49:17.175Z,28.35
2018-11-04T01:49:49.861Z,29.45
2018-11-04T01:50:22.511Z,29.25
2018-11-04T01:50:55.174Z,30.20
2018-11-04T01:51:27.851Z,29.07
2018-11-04T01:52:00.525Z,30.32
2018-11-04T01:52:33.199Z,29.72
2018-11-04T01:53:05.878Z,30.27
2018-11-04T01:53:38.529Z,29.35
2018-11-04T01:54:11.243Z,29.90
2018-11-04T01:54:43.917Z,29.95
2018-11-04T01:55:16.599Z,29.40
2018-11-04T01:55:49.262Z,29.70
2018-11-04T01:56:21.918Z,28.95
2018-11-04T01:56:54.626Z,29.12
2018-11-04T01:57:27.292Z,29.27
2018-11-04T01:57:59.940Z,27.42
2018-11-04T01:58:32.628Z,29.07
2018-11-04T01:59:05.390Z,30.72
2018-11-04T01:59:38.065Z,28.57
2018-11-04T02:00:15.468Z,29.55
2018-11-04T02:00:48.142Z,28.30
2018-11-04T02:01:20.808Z,29.90
2018-11-04T02:01:53.492Z,29.23
2018-11-04T02:02:26.176Z,29.55
2018-11-04T02:02:58.843Z,29.02
2018-11-04T02:03:31.508Z,29.82
2018-11-04T02:04:04.500Z,29.95
2018-11-04T02:04:37.251Z,28.67
2018-11-04T02:05:10.860Z,28.98
2018-11-04T02:05:43.512Z,28.65
2018-11-04T02:06:16.161Z,28.67
2018-11-04T02:06:48.806Z,27.45
2018-11-04T02:07:21.470Z,29.15
2018-11-04T02:07:54.226Z,29.37
2018-11-04T02:08:26.903Z,28.27
2018-11-04T02:08:59.590Z,28.47
2018-11-04T02:09:32.274Z,28.55
2018-11-04T02:10:06.160Z,27.55
2018-11-04T02:10:38.876Z,28.23
2018-11-04T02:11:11.546Z,28.35
2018-11-04T02:11:44.196Z,27.65
2018-11-04T02:12:16.858Z,27.85
2018-11-04T02:12:49.522Z,27.67
2018-11-04T02:13:22.207Z,29.15
2018-11-04T02:13:54.918Z,28.85
2018-11-04T02:14:27.614Z,28.12
2018-11-04T02:15:00.394Z,29.00
2018-11-04T02:15:33.084Z,28.57
2018-11-04T02:16:05.776Z,27.62
2018-11-04T02:16:38.445Z,28.17
2018-11-04T02:17:11.122Z,28.12
2018-11-04T02:17:43.776Z,28.23
2018-11-04T02:18:16.448Z,29.82
2018-11-04T02:18:49.104Z,28.40
2018-11-04T02:19:21.757Z,28.32
2018-11-04T02:19:54.434Z,29.00
2018-11-04T02:20:27.106Z,28.05
2018-11-04T02:20:59.794Z,27.93
2018-11-04T02:21:32.476Z,28.17
2018-11-04T02:22:05.565Z,27.93
2018-11-04T02:22:38.421Z,28.02
2018-11-04T02:23:11.086Z,28.27
2018-11-04T02:23:43.772Z,28.12
2018-11-04T02:24:16.440Z,27.58
2018-11-04T02:24:49.131Z,27.40
2018-11-04T02:25:21.816Z,27.20
2018-11-04T02:25:54.458Z,27.40
2018-11-04T02:26:27.098Z,27.45
2018-11-04T02:26:59.804Z,26.90
2018-11-04T02:27:32.454Z,28.12
2018-11-04T02:28:05.143Z,27.30
2018-11-04T02:28:37.814Z,27.73
2018-11-04T02:29:10.487Z,28.32
2018-11-04T02:29:43.158Z,26.45
2018-11-04T02:30:16.666Z,27.20
2018-11-04T02:30:49.405Z,27.22
2018-11-04T02:31:22.083Z,27.67
2018-11-04T02:31:54.748Z,26.85
2018-11-04T02:32:27.407Z,27.07
2018-11-04T02:33:00.073Z,27.45
2018-11-04T02:33:32.750Z,25.82
2018-11-04T02:34:05.412Z,26.82
2018-11-04T02:34:38.104Z,26.93
2018-11-04T02:35:10.954Z,26.77
2018-11-04T02:35:43.618Z,26.50
2018-11-04T02:36:16.399Z,27.13
2018-11-04T02:36:49.062Z,26.62
2018-11-04T02:37:21.900Z,25.55
2018-11-04T02:37:54.583Z,27.02
2018-11-04T02:38:27.243Z,26.35
2018-11-04T02:38:59.904Z,26.30
2018-11-04T02:39:32.575Z,26.02
2018-11-04T02:40:05.270Z,25.65
2018-11-04T02:40:37.949Z,27.22
2018-11-04T02:41:10.637Z,26.65
2018-11-04T02:41:43.301Z,26.62
2018-11-04T02:42:15.989Z,27.05
2018-11-04T02:42:48.661Z,26.80
2018-11-04T02:43:21.341Z,25.37
2018-11-04T02:43:53.994Z,26.55
2018-11-04T02:44:26.763Z,26.35
2018-11-04T02:44:59.427Z,25.43
2018-11-04T02:45:32.091Z,26.48
2018-11-04T02:46:05.513Z,25.90
2018-11-04T02:46:38.213Z,25.12
2018-11-04T02:47:10.958Z,26.73
2018-11-04T02:47:43.584Z,26.40
2018-11-04T02:48:16.250Z,25.17
2018-11-04T02:48:48.902Z,25.27
2018-11-04T02:49:21.555Z,26.45
2018-11-04T02:49:54.219Z,24.98
2018-11-04T02:50:26.911Z,25.10
2018-11-04T02:50:59.594Z,25.97
2018-11-04T02:51:32.253Z,26.10
2018-11-04T02:52:05.089Z,25.82
2018-11-04T02:52:37.778Z,25.88
2018-11-04T02:53:10.465Z,25.43
2018-11-04T02:53:43.128Z,26.17
2018-11-04T02:54:15.785Z,25.12
2018-11-04T02:54:48.583Z,25.75
2018-11-04T02:55:21.264Z,25.68
2018-11-04T02:55:53.968Z,25.62
2018-11-04T02:56:26.771Z,25.52
2018-11-04T02:56:59.438Z,25.80
2018-11-04T02:57:32.119Z,25.32
2018-11-04T02:58:04.979Z,25.05
2018-11-04T02:58:37.689Z,25.80
2018-11-04T02:59:10.381Z,25.72
2018-11-04T02:59:43.053Z,25.62
2018-11-04T03:00:15.721Z,24.50
2018-11-04T03:00:48.405Z,25.00
2018-11-04T03:01:21.081Z,25.00
2018-11-04T03:01:54.073Z,24.95
2018-11-04T03:02:26.786Z,25.27
2018-11-04T03:02:59.453Z,24.98
2018-11-04T03:03:32.114Z,25.35
2018-11-04T03:04:04.967Z,25.65
2018-11-04T03:04:37.631Z,25.00
2018-11-04T03:05:10.857Z,25.57
2018-11-04T03:05:43.509Z,25.68
2018-11-04T03:06:16.191Z,25.55
2018-11-04T03:06:48.859Z,24.95
2018-11-04T03:07:21.553Z,25.25
2018-11-04T03:07:54.203Z,24.63
2018-11-04T03:08:26.858Z,24.65
2018-11-04T03:08:59.531Z,24.95
2018-11-04T03:09:32.209Z,24.00
2018-11-04T03:10:05.067Z,24.70
2018-11-04T03:10:37.773Z,25.00
2018-11-04T03:11:10.435Z,24.10
2018-11-04T03:11:43.114Z,24.98
2018-11-04T03:12:15.765Z,25.25
2018-11-04T03:12:48.406Z,24.63
2018-11-04T03:13:21.091Z,25.57
2018-11-04T03:13:53.784Z,24.72
2018-11-04T03:14:26.458Z,24.87
2018-11-04T03:14:59.106Z,24.60
2018-11-04T03:15:31.745Z,24.70
2018-11-04T03:16:04.801Z,24.75
2018-11-04T03:16:37.472Z,22.58
2018-11-04T03:17:10.180Z,24.77
2018-11-04T03:17:42.837Z,24.77
2018-11-04T03:18:15.525Z,25.10
2018-11-04T03:18:48.189Z,25.08
2018-11-04T03:19:20.856Z,24.52
2018-11-04T03:19:53.520Z,24.85
2018-11-04T03:20:26.187Z,24.72
2018-11-04T03:20:58.913Z,24.70
2018-11-04T03:21:31.612Z,24.90
2018-11-04T03:22:04.875Z,24.63
2018-11-04T03:22:37.547Z,24.27
2018-11-04T03:23:10.239Z,24.70
2018-11-04T03:23:42.903Z,23.92
2018-11-04T03:24:15.568Z,25.02
2018-11-04T03:24:48.299Z,24.32
2018-11-04T03:25:20.925Z,24.20
2018-11-04T03:25:53.613Z,23.95
2018-11-04T03:26:26.261Z,24.75
2018-11-04T03:26:58.917Z,24.23
2018-11-04T03:27:31.573Z,23.87
2018-11-04T03:28:04.895Z,23.98
2018-11-04T03:28:37.573Z,23.67
2018-11-04T03:29:10.247Z,24.45
2018-11-04T03:29:42.868Z,24.57
2018-11-04T03:30:15.559Z,24.57
2018-11-04T03:30:48.234Z,24.52
2018-11-04T03:31:20.895Z,23.87
2018-11-04T03:31:53.559Z,24.65
2018-11-04T03:32:26.377Z,25.05
2018-11-04T03:32:59.035Z,24.77
2018-11-04T03:33:31.731Z,24.23
2018-11-04T03:34:04.559Z,25.02
2018-11-04T03:34:37.299Z,24.80
2018-11-04T03:35:09.975Z,24.25
2018-11-04T03:35:42.651Z,24.72
2018-11-04T03:36:15.341Z,23.40
2018-11-04T03:36:48.011Z,24.77
2018-11-04T03:37:20.675Z,24.57
2018-11-04T03:37:53.339Z,24.87
2018-11-04T03:38:26.001Z,24.27
2018-11-04T03:38:58.673Z,25.00
2018-11-04T03:39:31.345Z,24.05
2018-11-04T03:40:05.473Z,24.77
2018-11-04T03:40:38.166Z,23.57
2018-11-04T03:41:10.833Z,24.35
2018-11-04T03:41:43.523Z,24.25
2018-11-04T03:42:16.339Z,23.80
2018-11-04T03:42:49.011Z,25.02
2018-11-04T03:43:21.667Z,24.57
2018-11-04T03:43:54.413Z,24.57
2018-11-04T03:44:27.158Z,23.95
2018-11-04T03:44:59.814Z,25.08
2018-11-04T03:45:32.505Z,24.60
2018-11-04T03:46:05.255Z,24.10
2018-11-04T03:46:37.917Z,24.63
2018-11-04T03:47:10.648Z,24.35
2018-11-04T03:47:43.326Z,24.25
2018-11-04T03:48:15.992Z,23.70
2018-11-04T03:48:48.665Z,23.95
2018-11-04T03:49:21.311Z,23.83
2018-11-04T03:49:53.991Z,24.18
2018-11-04T03:50:26.675Z,24.57
2018-11-04T03:50:59.360Z,23.52
2018-11-04T03:51:32.027Z,23.62
2018-11-04T03:52:05.039Z,23.73
2018-11-04T03:52:37.716Z,23.98
2018-11-04T03:53:10.365Z,23.95
2018-11-04T03:53:43.038Z,24.15
2018-11-04T03:54:15.699Z,23.35
2018-11-04T03:54:48.351Z,24.32
2018-11-04T03:55:21.027Z,25.35
2018-11-04T03:55:53.669Z,24.07
2018-11-04T03:56:26.367Z,24.02
2018-11-04T03:56:59.048Z,24.63
2018-11-04T03:57:31.737Z,25.10
2018-11-04T03:58:04.591Z,25.25
2018-11-04T03:58:37.324Z,23.77
2018-11-04T03:59:09.992Z,23.83
2018-11-04T03:59:42.659Z,23.67
2018-11-04T04:00:15.316Z,24.75
2018-11-04T04:00:47.975Z,24.27
2018-11-04T04:01:20.634Z,24.57
2018-11-04T04:01:53.277Z,24.00
2018-11-04T04:02:25.940Z,24.85
2018-11-04T04:02:58.615Z,23.32
2018-11-04T04:03:31.277Z,23.92
2018-11-04T04:04:03.999Z,24.90
2018-11-04T04:04:36.663Z,24.80
2018-11-04T04:05:10.165Z,23.62
2018-11-04T04:05:42.815Z,23.87
2018-11-04T04:06:15.499Z,24.52
2018-11-04T04:06:48.161Z,23.77
2018-11-04T04:07:20.881Z,23.80
2018-11-04T04:07:53.547Z,24.10
2018-11-04T04:08:26.195Z,23.52
2018-11-04T04:08:58.887Z,23.87
2018-11-04T04:09:31.779Z,24.07
2018-11-04T04:10:05.610Z,23.77
2018-11-04T04:10:38.267Z,23.95
2018-11-04T04:11:10.913Z,24.23
2018-11-04T04:11:43.588Z,24.75
2018-11-04T04:12:16.279Z,24.02
2018-11-04T04:12:48.971Z,23.87
2018-11-04T04:13:21.639Z,23.80
2018-11-04T04:13:54.311Z,23.95
2018-11-04T04:14:26.987Z,24.15
2018-11-04T04:14:59.640Z,23.40
2018-11-04T04:15:32.340Z,23.47
2018-11-04T04:16:05.040Z,23.77
2018-11-04T04:16:37.727Z,23.95
2018-11-04T04:17:10.413Z,23.02
2018-11-04T04:17:43.068Z,23.22
2018-11-04T04:18:15.772Z,23.50
2018-11-04T04:18:48.465Z,22.98
2018-11-04T04:19:21.142Z,23.70
2018-11-04T04:19:53.822Z,23.10
2018-11-04T04:20:26.473Z,22.85
2018-11-04T04:21:06.841Z,23.40
2018-11-04T04:21:39.515Z,23.67
2018-11-04T04:22:12.277Z,23.27
2018-11-04T04:22:44.944Z,22.95
2018-11-04T04:23:17.608Z,23.27
2018-11-04T04:23:50.275Z,22.67
2018-11-04T04:24:22.933Z,22.95
2018-11-04T04:24:55.622Z,22.85
2018-11-04T04:25:28.303Z,22.70
2018-11-04T04:26:00.959Z,23.30
2018-11-04T04:26:33.646Z,22.70
2018-11-04T04:27:06.315Z,22.87
2018-11-04T04:27:38.975Z,22.70
2018-11-04T04:28:11.689Z,22.17
2018-11-04T04:28:44.352Z,23.18
2018-11-04T04:29:17.025Z,22.67
2018-11-04T04:29:49.685Z,23.20
2018-11-04T04:30:22.371Z,23.87
2018-11-04T04:30:55.046Z,22.87
2018-11-04T04:31:27.843Z,23.12
2018-11-04T04:32:00.487Z,23.10
2018-11-04T04:32:33.142Z,22.75
2018-11-04T04:33:05.811Z,22.13
2018-11-04T04:33:38.507Z,23.55
2018-11-04T04:34:12.037Z,22.17
2018-11-04T04:34:44.730Z,22.45
2018-11-04T04:35:17.412Z,22.85
2018-11-04T04:35:50.084Z,23.47
2018-11-04T04:36:22.919Z,23.12
2018-11-04T04:36:55.593Z,21.80
2018-11-04T04:37:28.265Z,22.05
2018-11-04T04:38:00.940Z,22.13
2018-11-04T04:38:33.601Z,23.55
2018-11-04T04:39:08.145Z,22.32
2018-11-04T04:39:40.857Z,22.58
2018-11-04T04:40:13.517Z,22.75
2018-11-04T04:40:46.187Z,22.50
2018-11-04T04:41:18.849Z,21.97
2018-11-04T04:41:51.526Z,23.07
2018-11-04T04:42:24.236Z,22.73
2018-11-04T04:42:56.879Z,22.45
2018-11-04T04:43:29.552Z,22.73
2018-11-04T04:44:02.210Z,22.42
2018-11-04T04:44:34.880Z,22.75
2018-11-04T04:45:07.540Z,22.70
2018-11-04T04:45:40.219Z,22.05
2018-11-04T04:46:12.867Z,21.97
2018-11-04T04:46:45.540Z,22.42
2018-11-04T04:47:18.204Z,22.40
2018-11-04T04:47:50.867Z,22.65
2018-11-04T04:48:23.532Z,22.65
2018-11-04T04:48:56.175Z,22.90
2018-11-04T04:49:28.866Z,22.48
2018-11-04T04:50:01.530Z,22.73
2018-11-04T04:50:34.212Z,22.70
2018-11-04T04:51:06.882Z,22.58
2018-11-04T04:51:39.521Z,22.82
2018-11-04T04:52:12.189Z,22.42
2018-11-04T04:52:44.861Z,21.57
2018-11-04T04:53:17.539Z,22.02
2018-11-04T04:53:50.231Z,22.55
2018-11-04T04:54:22.901Z,21.95
2018-11-04T04:54:55.592Z,22.07
2018-11-04T04:55:28.264Z,22.55
2018-11-04T04:56:00.957Z,22.70
2018-11-04T04:56:33.627Z,22.25
2018-11-04T04:57:06.311Z,22.40
2018-11-04T04:57:38.953Z,22.67
2018-11-04T04:58:11.619Z,22.15
2018-11-04T04:58:44.270Z,21.95
2018-11-04T04:59:16.944Z,22.00
2018-11-04T04:59:49.642Z,23.10
2018-11-04T05:00:22.305Z,21.85
2018-11-04T05:00:54.984Z,21.95
2018-11-04T05:01:27.652Z,22.58
2018-11-04T05:02:00.300Z,22.10
2018-11-04T05:02:32.979Z,22.60
2018-11-04T05:03:05.658Z,22.98
2018-11-04T05:03:38.385Z,22.90
2018-11-04T05:04:11.060Z,22.52
2018-11-04T05:04:43.729Z,21.65
2018-11-04T05:05:16.425Z,22.65
2018-11-04T05:05:49.064Z,23.05
2018-11-04T05:06:21.731Z,22.77
2018-11-04T05:06:54.391Z,21.97
2018-11-04T05:07:27.059Z,22.02
2018-11-04T05:07:59.766Z,21.00
2018-11-04T05:08:32.428Z,22.05
2018-11-04T05:09:05.842Z,22.80
2018-11-04T05:09:38.523Z,21.90
2018-11-04T05:10:11.182Z,22.80
2018-11-04T05:10:43.910Z,22.32
2018-11-04T05:11:16.568Z,22.73
2018-11-04T05:11:49.227Z,22.40
2018-11-04T05:12:21.922Z,22.60
2018-11-04T05:12:54.601Z,22.02
2018-11-04T05:13:27.274Z,22.62
2018-11-04T05:13:59.934Z,22.02
2018-11-04T05:14:32.600Z,22.42
2018-11-04T05:15:06.457Z,22.62
2018-11-04T05:15:39.121Z,22.32
2018-11-04T05:16:11.802Z,22.35
2018-11-04T05:16:44.495Z,21.77
2018-11-04T05:17:17.156Z,22.80
2018-11-04T05:17:49.855Z,21.93
2018-11-04T05:18:22.571Z,23.22
2018-11-04T05:18:55.214Z,22.65
2018-11-04T05:19:27.893Z,22.90
2018-11-04T05:20:00.542Z,22.32
2018-11-04T05:20:33.202Z,22.75
2018-11-04T05:21:05.856Z,22.20
2018-11-04T05:21:38.519Z,22.15
2018-11-04T05:22:11.220Z,22.70
2018-11-04T05:22:43.863Z,23.12
2018-11-04T05:23:16.532Z,22.37
2018-11-04T05:23:49.182Z,22.25
2018-11-04T05:24:21.838Z,22.25
2018-11-04T05:24:54.500Z,23.27
2018-11-04T05:25:27.156Z,22.82
2018-11-04T05:25:59.855Z,22.60
2018-11-04T05:26:32.538Z,22.22
2018-11-04T05:27:05.242Z,22.05
2018-11-04T05:27:37.910Z,22.27
2018-11-04T05:28:10.578Z,22.55
2018-11-04T05:28:43.239Z,22.85
2018-11-04T05:29:15.902Z,22.75
2018-11-04T05:29:48.572Z,22.30
2018-11-04T05:30:21.257Z,22.30
2018-11-04T05:30:53.914Z,22.87
2018-11-04T05:31:26.597Z,22.55
2018-11-04T05:31:59.270Z,22.52
2018-11-04T05:32:31.920Z,22.90
2018-11-04T05:33:04.860Z,23.30
2018-11-04T05:33:37.526Z,22.87
2018-11-04T05:34:10.170Z,21.93
2018-11-04T05:34:42.834Z,22.45
2018-11-04T05:35:15.514Z,22.58
2018-11-04T05:35:48.174Z,22.30
2018-11-04T05:36:20.864Z,23.25
2018-11-04T05:36:53.602Z,22.80
2018-11-04T05:37:26.312Z,23.02
2018-11-04T05:37:58.980Z,22.75
2018-11-04T05:38:31.741Z,22.77
2018-11-04T05:39:06.414Z,22.62
2018-11-04T05:39:39.098Z,21.97
2018-11-04T05:40:11.794Z,22.93
2018-11-04T05:40:44.447Z,22.50
2018-11-04T05:41:17.130Z,22.30
2018-11-04T05:41:49.806Z,21.85
2018-11-04T05:42:22.482Z,23.30
2018-11-04T05:42:55.163Z,22.90
2018-11-04T05:43:27.826Z,22.87
2018-11-04T05:44:00.502Z,22.20
2018-11-04T05:44:33.195Z,22.93
2018-11-04T05:45:06.436Z,22.70
2018-11-04T05:45:39.144Z,23.15
2018-11-04T05:46:11.807Z,22.58
2018-11-04T05:46:44.492Z,22.75
2018-11-04T05:47:17.168Z,22.48
2018-11-04T05:47:49.843Z,22.30
2018-11-04T05:48:22.512Z,22.85
2018-11-04T05:48:55.171Z,22.02
2018-11-04T05:49:27.820Z,22.60
2018-11-04T05:50:00.475Z,22.80
2018-11-04T05:50:33.131Z,22.48
2018-11-04T05:51:05.785Z,22.48
2018-11-04T05:51:38.445Z,22.48
2018-11-04T05:52:11.095Z,22.67
2018-11-04T05:52:43.775Z,22.48
2018-11-04T05:53:16.437Z,23.15
2018-11-04T05:53:49.089Z,23.00
2018-11-04T05:54:21.775Z,22.07
2018-11-04T05:54:54.504Z,22.98
2018-11-04T05:55:27.106Z,23.00
2018-11-04T05:56:01.463Z,23.57
2018-11-04T05:56:34.117Z,22.45
2018-11-04T05:57:06.793Z,22.93
2018-11-04T05:57:39.487Z,22.70
2018-11-04T05:58:12.135Z,22.65
2018-11-04T05:58:44.795Z,22.52
2018-11-04T05:59:17.452Z,22.65
2018-11-04T05:59:50.121Z,21.77
2018-11-04T06:00:22.859Z,22.87
2018-11-04T06:00:55.539Z,22.40
2018-11-04T06:01:28.202Z,22.65
2018-11-04T06:02:00.881Z,23.25
2018-11-04T06:02:33.531Z,22.35
2018-11-04T06:03:06.200Z,22.70
2018-11-04T06:03:38.871Z,22.62
2018-11-04T06:04:11.561Z,23.05
2018-11-04T06:04:44.230Z,22.00
2018-11-04T06:05:16.887Z,22.37
2018-11-04T06:05:49.545Z,22.50
2018-11-04T06:06:22.203Z,22.70
2018-11-04T06:06:54.877Z,22.98
2018-11-04T06:07:27.567Z,23.20
2018-11-04T06:08:00.228Z,22.48
2018-11-04T06:08:32.900Z,23.25
2018-11-04T06:09:07.183Z,22.58
2018-11-04T06:09:39.846Z,22.82
2018-11-04T06:10:12.507Z,23.02
2018-11-04T06:10:45.181Z,22.85
2018-11-04T06:11:17.841Z,23.40
2018-11-04T06:11:50.513Z,23.18
2018-11-04T06:12:23.172Z,22.75
2018-11-04T06:12:55.853Z,23.27
2018-11-04T06:13:28.527Z,23.18
2018-11-04T06:14:01.181Z,23.50
2018-11-04T06:14:33.863Z,22.80
2018-11-04T06:15:07.289Z,22.60
2018-11-04T06:15:39.951Z,22.65
2018-11-04T06:16:12.647Z,23.38
2018-11-04T06:16:45.324Z,22.55
2018-11-04T06:17:17.975Z,22.93
2018-11-04T06:17:50.625Z,22.80
2018-11-04T06:18:23.287Z,22.60
2018-11-04T06:18:55.933Z,22.93
2018-11-04T06:19:28.648Z,23.60
2018-11-04T06:20:01.294Z,23.95
2018-11-04T06:20:33.977Z,23.42
2018-11-04T06:21:06.953Z,23.02
2018-11-04T06:21:39.605Z,22.42
2018-11-04T06:22:12.272Z,23.50
2018-11-04T06:22:44.935Z,23.73
2018-11-04T06:23:17.666Z,23.47
2018-11-04T06:23:50.319Z,23.83
2018-11-04T06:24:23.231Z,23.35
2018-11-04T06:24:55.901Z,23.47
2018-11-04T06:25:28.602Z,22.62
2018-11-04T06:26:01.279Z,23.35
2018-11-04T06:26:33.993Z,24.10
2018-11-04T06:27:06.667Z,23.62
2018-11-04T06:27:39.322Z,23.52
2018-11-04T06:28:11.963Z,22.75
2018-11-04T06:28:44.644Z,22.90
2018-11-04T06:29:17.315Z,23.50
2018-11-04T06:29:49.995Z,23.12
2018-11-04T06:30:22.695Z,23.40
2018-11-04T06:30:55.361Z,23.30
2018-11-04T06:31:28.075Z,22.98
2018-11-04T06:32:00.727Z,23.00
2018-11-04T06:32:33.613Z,22.98
2018-11-04T06:33:06.279Z,23.20
2018-11-04T06:33:38.931Z,22.25
2018-11-04T06:34:11.574Z,22.55
2018-11-04T06:34:44.335Z,22.98
2018-11-04T06:35:16.939Z,22.52
2018-11-04T06:35:49.590Z,22.50
2018-11-04T06:36:22.263Z,23.45
2018-11-04T06:36:54.909Z,23.22
2018-11-04T06:37:27.556Z,23.20
2018-11-04T06:38:00.227Z,23.67
2018-11-04T06:38:32.864Z,22.80
2018-11-04T06:39:06.839Z,22.85
2018-11-04T06:39:39.525Z,22.98
2018-11-04T06:40:12.187Z,23.38
2018-11-04T06:40:44.835Z,23.25
2018-11-04T06:41:17.584Z,23.02
2018-11-04T06:41:50.225Z,23.07
2018-11-04T06:42:22.899Z,23.12
2018-11-04T06:42:55.590Z,21.93
2018-11-04T06:43:28.257Z,23.00
2018-11-04T06:44:00.912Z,23.30
2018-11-04T06:44:33.584Z,22.95
2018-11-04T06:45:07.093Z,23.32
2018-11-04T06:45:39.782Z,23.52
2018-11-04T06:46:12.452Z,23.55
2018-11-04T06:46:45.165Z,23.12
2018-11-04T06:47:17.817Z,23.10
2018-11-04T06:47:50.497Z,23.32
2018-11-04T06:48:23.181Z,22.90
2018-11-04T06:48:55.864Z,23.90
2018-11-04T06:49:28.515Z,23.18
2018-11-04T06:50:01.192Z,23.22
2018-11-04T06:50:33.881Z,23.57
2018-11-04T06:51:06.579Z,22.87
2018-11-04T06:51:39.256Z,23.00
2018-11-04T06:52:11.903Z,23.45
2018-11-04T06:52:44.640Z,22.65
2018-11-04T06:53:17.317Z,23.30
2018-11-04T06:53:49.979Z,23.35
2018-11-04T06:54:22.692Z,22.75
2018-11-04T06:54:55.343Z,23.18
2018-11-04T06:55:28.025Z,23.10
2018-11-04T06:56:00.727Z,24.32
2018-11-04T06:56:33.406Z,23.15
2018-11-04T06:57:06.107Z,23.70
2018-11-04T06:57:39.328Z,23.65
2018-11-04T06:58:12.028Z,22.93
2018-11-04T06:58:44.679Z,23.25
2018-11-04T06:59:17.361Z,23.83
2018-11-04T06:59:50.038Z,23.20
2018-11-04T07:00:22.713Z,23.25
2018-11-04T07:00:55.372Z,23.57
2018-11-04T07:01:28.030Z,23.75